createdAt,value
2022-12-09T00:00:56.590Z,62.13
2022-12-09T00:10:59.714Z,63.67
2022-12-09T00:21:14.601Z,62.75
2022-12-09T00:31:21.563Z,62.76
2022-12-09T00:41:26.958Z,62.76
2022-12-09T00:51:30.001Z,62.53
2022-12-09T01:01:34.570Z,62.46
2022-12-09T01:11:38.109Z,62.85
2022-12-09T01:21:42.711Z,63.21
2022-12-09T01:31:45.973Z,63.17
2022-12-09T01:41:51.369Z,63.35
2022-12-09T01:52:02.963Z,64.11
2022-12-09T02:02:09.339Z,62.97
2022-12-09T02:12:15.337Z,62.94
2022-12-09T02:22:24.755Z,63.15
2022-12-09T02:32:40.089Z,63.66
2022-12-09T02:42:47.153Z,63.70
2022-12-09T02:52:51.251Z,63.52
2022-12-09T03:02:57.828Z,63.50
2022-12-09T03:13:07.429Z,63.77
2022-12-09T03:23:14.942Z,64.03
2022-12-09T03:33:20.403Z,64.29
2022-12-09T03:43:27.670Z,64.43
2022-12-09T03:53:36.187Z,64.33
2022-12-09T04:03:40.754Z,64.32
2022-12-09T04:13:44.010Z,64.56
2022-12-09T04:23:48.653Z,64.46
2022-12-09T04:33:52.026Z,65.28
2022-12-09T04:43:56.513Z,64.88
2022-12-09T04:53:59.946Z,65.05
2022-12-09T05:04:05.407Z,65.39
2022-12-09T05:14:08.996Z,65.70
2022-12-09T05:24:14.276Z,65.71
2022-12-09T05:34:17.596Z,65.88
2022-12-09T05:44:22.225Z,66.02
2022-12-09T05:54:25.871Z,66.01
2022-12-09T06:04:30.783Z,68.31
2022-12-09T06:14:34.246Z,66.35
2022-12-09T06:24:38.866Z,66.21
2022-12-09T06:34:42.358Z,65.68
2022-12-09T06:44:47.217Z,66.12
2022-12-09T06:54:50.572Z,67.33
2022-12-09T07:04:55.816Z,66.76
2022-12-09T07:14:59.424Z,67.21
2022-12-09T07:25:04.550Z,67.49
2022-12-09T07:35:08.851Z,67.85
2022-12-09T07:45:14.747Z,67.57
2022-12-09T07:55:18.020Z,67.35
2022-12-09T08:05:22.892Z,68.27
2022-12-09T08:15:26.169Z,67.33
2022-12-09T08:25:30.944Z,69.39
2022-12-09T08:35:34.466Z,70.14
2022-12-09T08:45:40.707Z,69.15
2022-12-09T08:55:44.318Z,68.95
2022-12-09T09:05:49.408Z,70.95
2022-12-09T09:15:53.384Z,68.70
2022-12-09T09:25:57.962Z,70.54
2022-12-09T09:36:09.706Z,68.96
2022-12-09T09:46:20.824Z,68.83
2022-12-09T09:56:28.497Z,68.75
2022-12-09T10:06:39.709Z,68.40
2022-12-09T10:16:46.597Z,68.89
2022-12-09T10:26:58.570Z,67.83
2022-12-09T10:37:01.867Z,68.59
2022-12-09T10:47:08.841Z,68.34
2022-12-09T10:57:26.705Z,69.15
2022-12-09T11:07:32.078Z,69.40
2022-12-09T11:17:37.007Z,69.50
2022-12-09T11:27:44.127Z,69.96
2022-12-09T11:37:47.443Z,70.49
2022-12-09T11:48:25.713Z,70.10
2022-12-09T11:58:17.684Z,70.01
2022-12-09T12:08:27.064Z,69.64
2022-12-09T12:18:34.317Z,69.71
2022-12-09T12:29:11.130Z,70.00
2022-12-09T12:39:23.286Z,72.51
2022-12-09T12:49:40.694Z,73.64
2022-12-09T12:59:50.298Z,72.50
2022-12-09T13:09:58.917Z,70.25
2022-12-09T13:20:03.350Z,71.29
2022-12-09T13:30:13.653Z,71.22
2022-12-09T13:40:34.849Z,72.62
2022-12-09T13:50:41.790Z,70.68
2022-12-09T14:00:46.026Z,71.26
2022-12-09T14:10:52.185Z,75.91
2022-12-09T14:21:34.982Z,71.45
2022-12-09T14:31:47.976Z,72.32
2022-12-09T14:41:56.055Z,77.07
2022-12-09T14:52:02.833Z,75.37
2022-12-09T15:02:24.773Z,75.29
2022-12-09T15:12:32.117Z,73.35
2022-12-09T15:22:35.309Z,71.74
2022-12-09T15:32:40.719Z,70.31
2022-12-09T15:42:45.737Z,69.95
2022-12-09T15:52:52.547Z,69.83
2022-12-09T16:02:55.971Z,69.82
2022-12-09T16:13:08.731Z,69.46
2022-12-09T16:23:22.026Z,70.33
2022-12-09T16:33:27.344Z,69.56
2022-12-09T16:43:31.668Z,69.91
2022-12-09T16:53:39.569Z,69.27
2022-12-09T17:03:46.590Z,69.52
2022-12-09T17:13:51.792Z,69.35
2022-12-09T17:23:55.157Z,69.60
2022-12-09T17:33:59.855Z,69.70
2022-12-09T17:44:03.266Z,69.58
2022-12-09T17:54:08.147Z,69.61
2022-12-09T18:04:11.746Z,70.20
2022-12-09T18:14:17.067Z,71.08
2022-12-09T18:24:20.251Z,71.01
2022-12-09T18:34:25.686Z,70.54
2022-12-09T18:44:28.810Z,69.88
2022-12-09T18:54:33.610Z,72.15
2022-12-09T19:04:36.809Z,71.19
2022-12-09T19:14:41.455Z,70.82
2022-12-09T19:24:45.281Z,70.54
2022-12-09T19:34:50.354Z,70.02
2022-12-09T19:45:01.561Z,70.23
2022-12-09T19:55:08.406Z,70.32
2022-12-09T20:05:11.536Z,70.46
2022-12-09T20:15:16.406Z,70.56
2022-12-09T20:25:19.465Z,71.28
2022-12-09T20:35:24.400Z,71.32
2022-12-09T20:45:27.864Z,70.27
2022-12-09T20:55:32.694Z,70.07
2022-12-09T21:05:37.209Z,70.08
2022-12-09T21:15:42.117Z,69.70
2022-12-09T21:25:45.515Z,70.16
2022-12-09T21:35:50.989Z,69.91
2022-12-09T21:45:54.501Z,78.12
2022-12-09T21:56:04.135Z,80.26
2022-12-09T22:06:08.350Z,74.77
2022-12-09T22:16:14.650Z,74.42
2022-12-09T22:26:20.911Z,71.62
2022-12-09T22:36:25.449Z,70.65
2022-12-09T22:46:30.973Z,70.99
2022-12-09T22:56:37.005Z,70.33
2022-12-09T23:06:41.664Z,70.41
2022-12-09T23:16:46.168Z,70.42
2022-12-09T23:26:49.213Z,70.37
2022-12-09T23:36:53.753Z,70.10
2022-12-09T23:46:57.133Z,69.74
2022-12-09T23:57:01.640Z,69.83
